sensor_id;sensor_type;location;lat;lon;timestamp;pressure;altitude;pressure_sealevel;temperature;humidity
52839;BME280;39219;53.678;9.856;2022-10-30T00:00:43;101461.59;;;14.14;100.00
52839;BME280;39219;53.678;9.856;2022-10-30T00:03:11;101457.25;;;14.10;100.00
52839;BME280;39219;53.678;9.856;2022-10-30T00:05:39;101460.03;;;14.05;100.00
52839;BME280;39219;53.678;9.856;2022-10-30T00:08:07;101463.75;;;14.00;100.00
52839;BME280;39219;53.678;9.856;2022-10-30T00:10:34;101455.91;;;13.92;100.00
52839;BME280;39219;53.678;9.856;2022-10-30T00:13:01;101459.56;;;13.89;100.00
52839;BME280;39219;53.678;9.856;2022-10-30T00:15:29;101458.69;;;13.89;100.00
52839;BME280;39219;53.678;9.856;2022-10-30T00:17:55;101457.09;;;13.82;100.00
52839;BME280;39219;53.678;9.856;2022-10-30T00:20:21;101451.84;;;13.79;100.00
52839;BME280;39219;53.678;9.856;2022-10-30T00:22:48;101453.69;;;13.75;100.00
52839;BME280;39219;53.678;9.856;2022-10-30T00:25:14;101452.00;;;13.72;100.00
52839;BME280;39219;53.678;9.856;2022-10-30T00:27:41;101452.00;;;13.71;100.00
52839;BME280;39219;53.678;9.856;2022-10-30T00:30:09;101446.66;;;13.72;100.00
52839;BME280;39219;53.678;9.856;2022-10-30T00:32:37;101443.97;;;13.72;100.00
52839;BME280;39219;53.678;9.856;2022-10-30T00:35:04;101447.50;;;13.73;100.00
52839;BME280;39219;53.678;9.856;2022-10-30T00:37:30;101442.19;;;13.73;100.00
52839;BME280;39219;53.678;9.856;2022-10-30T00:39:57;101445.75;;;13.73;100.00
52839;BME280;39219;53.678;9.856;2022-10-30T00:42:28;101451.03;;;13.75;100.00
52839;BME280;39219;53.678;9.856;2022-10-30T00:44:55;101444.75;;;13.76;100.00
52839;BME280;39219;53.678;9.856;2022-10-30T00:47:24;101447.28;;;13.82;100.00
52839;BME280;39219;53.678;9.856;2022-10-30T00:49:56;101444.50;;;13.87;100.00
52839;BME280;39219;53.678;9.856;2022-10-30T00:52:26;101445.22;;;13.92;100.00
52839;BME280;39219;53.678;9.856;2022-10-30T00:54:55;101449.78;;;13.88;100.00
52839;BME280;39219;53.678;9.856;2022-10-30T00:57:22;101441.09;;;13.82;100.00
52839;BME280;39219;53.678;9.856;2022-10-30T00:59:49;101442.06;;;13.77;100.00
52839;BME280;39219;53.678;9.856;2022-10-30T01:02:16;101434.94;;;13.78;100.00
52839;BME280;39219;53.678;9.856;2022-10-30T01:04:44;101429.50;;;13.81;100.00
52839;BME280;39219;53.678;9.856;2022-10-30T01:07:15;101434.66;;;13.89;100.00
52839;BME280;39219;53.678;9.856;2022-10-30T01:09:42;101433.03;;;13.83;100.00
52839;BME280;39219;53.678;9.856;2022-10-30T01:12:08;101431.16;;;13.87;100.00
52839;BME280;39219;53.678;9.856;2022-10-30T01:14:38;101433.03;;;13.83;100.00
52839;BME280;39219;53.678;9.856;2022-10-30T01:17:19;101427.44;;;13.92;100.00
52839;BME280;39219;53.678;9.856;2022-10-30T01:19:55;101424.72;;;13.94;100.00
52839;BME280;39219;53.678;9.856;2022-10-30T01:22:38;101426.44;;;13.97;100.00
52839;BME280;39219;53.678;9.856;2022-10-30T01:25:17;101422.94;;;13.95;100.00
52839;BME280;39219;53.678;9.856;2022-10-30T01:27:53;101431.88;;;13.92;100.00
52839;BME280;39219;53.678;9.856;2022-10-30T01:30:33;101422.25;;;13.86;100.00
52839;BME280;39219;53.678;9.856;2022-10-30T01:33:12;101419.16;;;13.69;100.00
52839;BME280;39219;53.678;9.856;2022-10-30T01:35:45;101419.59;;;13.52;100.00
52839;BME280;39219;53.678;9.856;2022-10-30T01:38:18;101420.84;;;13.35;100.00
52839;BME280;39219;53.678;9.856;2022-10-30T01:40:46;101417.91;;;13.47;100.00
52839;BME280;39219;53.678;9.856;2022-10-30T01:43:12;101413.38;;;13.51;100.00
52839;BME280;39219;53.678;9.856;2022-10-30T01:45:50;101416.84;;;13.55;100.00
52839;BME280;39219;53.678;9.856;2022-10-30T01:48:43;101403.28;;;13.62;100.00
52839;BME280;39219;53.678;9.856;2022-10-30T01:51:20;101406.78;;;13.66;100.00
52839;BME280;39219;53.678;9.856;2022-10-30T01:53:57;101412.22;;;13.61;100.00
52839;BME280;39219;53.678;9.856;2022-10-30T01:56:36;101411.66;;;13.48;100.00
52839;BME280;39219;53.678;9.856;2022-10-30T01:59:08;101409.25;;;13.36;100.00
52839;BME280;39219;53.678;9.856;2022-10-30T02:01:37;101409.25;;;13.36;100.00
52839;BME280;39219;53.678;9.856;2022-10-30T02:04:05;101403.00;;;13.37;100.00
52839;BME280;39219;53.678;9.856;2022-10-30T02:06:32;101409.69;;;13.57;100.00
52839;BME280;39219;53.678;9.856;2022-10-30T02:09:00;101402.63;;;13.54;100.00
52839;BME280;39219;53.678;9.856;2022-10-30T02:11:28;101401.66;;;13.57;100.00
52839;BME280;39219;53.678;9.856;2022-10-30T02:13:56;101398.94;;;13.58;100.00
52839;BME280;39219;53.678;9.856;2022-10-30T02:16:24;101400.19;;;13.45;100.00
52839;BME280;39219;53.678;9.856;2022-10-30T02:18:50;101394.78;;;13.48;100.00
52839;BME280;39219;53.678;9.856;2022-10-30T02:21:18;101394.94;;;13.40;100.00
52839;BME280;39219;53.678;9.856;2022-10-30T02:23:45;101392.41;;;13.36;100.00
52839;BME280;39219;53.678;9.856;2022-10-30T02:26:11;101406.44;;;13.04;100.00
52839;BME280;39219;53.678;9.856;2022-10-30T02:28:37;101408.22;;;13.06;100.00
52839;BME280;39219;53.678;9.856;2022-10-30T02:31:04;101403.56;;;13.15;100.00
52839;BME280;39219;53.678;9.856;2022-10-30T02:33:30;101406.72;;;12.94;100.00
52839;BME280;39219;53.678;9.856;2022-10-30T02:35:57;101400.34;;;12.99;100.00
52839;BME280;39219;53.678;9.856;2022-10-30T02:38:25;101399.69;;;12.91;100.00
52839;BME280;39219;53.678;9.856;2022-10-30T02:40:51;101407.69;;;12.89;100.00
52839;BME280;39219;53.678;9.856;2022-10-30T02:43:17;101396.84;;;12.97;100.00
52839;BME280;39219;53.678;9.856;2022-10-30T02:45:49;101404.03;;;12.94;100.00
52839;BME280;39219;53.678;9.856;2022-10-30T02:48:15;101405.91;;;12.90;100.00
52839;BME280;39219;53.678;9.856;2022-10-30T02:50:42;101407.41;;;13.02;100.00
52839;BME280;39219;53.678;9.856;2022-10-30T02:53:08;101410.09;;;13.02;100.00
52839;BME280;39219;53.678;9.856;2022-10-30T02:55:36;101415.34;;;13.05;100.00
52839;BME280;39219;53.678;9.856;2022-10-30T02:58:02;101414.38;;;13.08;100.00
52839;BME280;39219;53.678;9.856;2022-10-30T03:00:29;101410.91;;;13.04;100.00
52839;BME280;39219;53.678;9.856;2022-10-30T03:02:55;101408.88;;;12.76;100.00
52839;BME280;39219;53.678;9.856;2022-10-30T03:05:22;101407.53;;;12.56;100.00
52839;BME280;39219;53.678;9.856;2022-10-30T03:07:49;101410.41;;;12.47;100.00
52839;BME280;39219;53.678;9.856;2022-10-30T03:10:15;101413.44;;;12.27;100.00
52839;BME280;39219;53.678;9.856;2022-10-30T03:12:43;101414.56;;;12.15;100.00
52839;BME280;39219;53.678;9.856;2022-10-30T03:15:10;101415.72;;;11.98;100.00
52839;BME280;39219;53.678;9.856;2022-10-30T03:17:36;101416.78;;;11.90;100.00
52839;BME280;39219;53.678;9.856;2022-10-30T03:20:03;101410.56;;;11.92;100.00
52839;BME280;39219;53.678;9.856;2022-10-30T03:22:29;101415.06;;;11.87;100.00
52839;BME280;39219;53.678;9.856;2022-10-30T03:24:56;101419.22;;;12.04;100.00
52839;BME280;39219;53.678;9.856;2022-10-30T03:27:22;101418.84;;;12.24;100.00
52839;BME280;39219;53.678;9.856;2022-10-30T03:29:50;101423.09;;;12.33;100.00
52839;BME280;39219;53.678;9.856;2022-10-30T03:32:16;101421.19;;;12.41;100.00
52839;BME280;39219;53.678;9.856;2022-10-30T03:34:43;101422.88;;;12.45;100.00
52839;BME280;39219;53.678;9.856;2022-10-30T03:37:09;101420.13;;;12.48;100.00
52839;BME280;39219;53.678;9.856;2022-10-30T03:39:36;101413.97;;;12.46;100.00
52839;BME280;39219;53.678;9.856;2022-10-30T03:42:02;101421.06;;;12.47;100.00
52839;BME280;39219;53.678;9.856;2022-10-30T03:44:29;101420.25;;;12.42;100.00
52839;BME280;39219;53.678;9.856;2022-10-30T03:46:56;101424.69;;;12.43;100.00
52839;BME280;39219;53.678;9.856;2022-10-30T03:49:23;101424.63;;;12.46;100.00
52839;BME280;39219;53.678;9.856;2022-10-30T03:51:49;101428.44;;;12.31;100.00
52839;BME280;39219;53.678;9.856;2022-10-30T03:54:16;101424.75;;;12.40;100.00
52839;BME280;39219;53.678;9.856;2022-10-30T03:56:43;101424.34;;;12.14;100.00
52839;BME280;39219;53.678;9.856;2022-10-30T03:59:09;101435.31;;;11.94;100.00
52839;BME280;39219;53.678;9.856;2022-10-30T04:01:37;101427.84;;;11.66;100.00
52839;BME280;39219;53.678;9.856;2022-10-30T04:04:04;101431.84;;;11.37;100.00
52839;BME280;39219;53.678;9.856;2022-10-30T04:06:31;101424.28;;;11.66;100.00
52839;BME280;39219;53.678;9.856;2022-10-30T04:08:57;101427.59;;;11.80;100.00
52839;BME280;39219;53.678;9.856;2022-10-30T04:11:24;101429.88;;;12.04;100.00
52839;BME280;39219;53.678;9.856;2022-10-30T04:13:50;101424.47;;;12.08;100.00
52839;BME280;39219;53.678;9.856;2022-10-30T04:16:16;101431.69;;;12.02;100.00
52839;BME280;39219;53.678;9.856;2022-10-30T04:18:43;101427.13;;;12.08;100.00
52839;BME280;39219;53.678;9.856;2022-10-30T04:21:11;101423.56;;;12.08;100.00
52839;BME280;39219;53.678;9.856;2022-10-30T04:23:37;101412.22;;;11.96;100.00
52839;BME280;39219;53.678;9.856;2022-10-30T04:26:04;101413.09;;;12.00;100.00
52839;BME280;39219;53.678;9.856;2022-10-30T04:28:30;101413.31;;;11.86;100.00
52839;BME280;39219;53.678;9.856;2022-10-30T04:30:57;101426.28;;;11.53;100.00
52839;BME280;39219;53.678;9.856;2022-10-30T04:33:23;101420.69;;;11.17;100.00
52839;BME280;39219;53.678;9.856;2022-10-30T04:35:50;101422.25;;;11.27;100.00
52839;BME280;39219;53.678;9.856;2022-10-30T04:38:17;101413.69;;;11.64;100.00
52839;BME280;39219;53.678;9.856;2022-10-30T04:40:44;101413.38;;;11.83;100.00
52839;BME280;39219;53.678;9.856;2022-10-30T04:43:11;101412.91;;;12.09;100.00
52839;BME280;39219;53.678;9.856;2022-10-30T04:45:39;101403.91;;;12.15;100.00
52839;BME280;39219;53.678;9.856;2022-10-30T04:48:07;101412.94;;;12.08;100.00
52839;BME280;39219;53.678;9.856;2022-10-30T04:50:35;101419.44;;;11.90;100.00
52839;BME280;39219;53.678;9.856;2022-10-30T04:53:04;101416.38;;;11.63;100.00
52839;BME280;39219;53.678;9.856;2022-10-30T04:55:32;101412.28;;;11.41;100.00
52839;BME280;39219;53.678;9.856;2022-10-30T04:57:59;101410.69;;;11.31;100.00
52839;BME280;39219;53.678;9.856;2022-10-30T05:00:27;101411.56;;;11.32;100.00
52839;BME280;39219;53.678;9.856;2022-10-30T05:02:54;101415.66;;;11.53;100.00
52839;BME280;39219;53.678;9.856;2022-10-30T05:05:20;101408.97;;;11.80;100.00
52839;BME280;39219;53.678;9.856;2022-10-30T05:07:46;101414.28;;;11.82;100.00
52839;BME280;39219;53.678;9.856;2022-10-30T05:10:13;101410.06;;;11.68;100.00
52839;BME280;39219;53.678;9.856;2022-10-30T05:12:43;101417.47;;;11.51;100.00
52839;BME280;39219;53.678;9.856;2022-10-30T05:15:10;101419.34;;;11.44;100.00
52839;BME280;39219;53.678;9.856;2022-10-30T05:17:37;101417.75;;;11.32;100.00
52839;BME280;39219;53.678;9.856;2022-10-30T05:20:05;101420.34;;;11.37;100.00
52839;BME280;39219;53.678;9.856;2022-10-30T05:22:31;101422.13;;;11.36;100.00
52839;BME280;39219;53.678;9.856;2022-10-30T05:24:58;101425.81;;;11.28;100.00
52839;BME280;39219;53.678;9.856;2022-10-30T05:27:24;101423.06;;;11.32;100.00
52839;BME280;39219;53.678;9.856;2022-10-30T05:29:52;101424.16;;;11.22;100.00
52839;BME280;39219;53.678;9.856;2022-10-30T05:32:18;101419.59;;;11.29;100.00
52839;BME280;39219;53.678;9.856;2022-10-30T05:34:45;101419.47;;;11.36;100.00
52839;BME280;39219;53.678;9.856;2022-10-30T05:37:11;101416.50;;;11.55;100.00
52839;BME280;39219;53.678;9.856;2022-10-30T05:39:38;101425.19;;;11.65;100.00
52839;BME280;39219;53.678;9.856;2022-10-30T05:42:04;101421.81;;;11.57;100.00
52839;BME280;39219;53.678;9.856;2022-10-30T05:44:30;101423.72;;;11.48;100.00
52839;BME280;39219;53.678;9.856;2022-10-30T05:46:58;101430.94;;;11.38;100.00
52839;BME280;39219;53.678;9.856;2022-10-30T05:49:25;101422.34;;;11.24;100.00
52839;BME280;39219;53.678;9.856;2022-10-30T05:51:51;101436.72;;;11.10;100.00
52839;BME280;39219;53.678;9.856;2022-10-30T05:54:17;101436.84;;;11.00;100.00
52839;BME280;39219;53.678;9.856;2022-10-30T05:56:44;101438.72;;;10.93;100.00
52839;BME280;39219;53.678;9.856;2022-10-30T05:59:10;101435.28;;;10.86;100.00
52839;BME280;39219;53.678;9.856;2022-10-30T06:01:37;101448.63;;;10.83;100.00
52839;BME280;39219;53.678;9.856;2022-10-30T06:04:04;101435.25;;;10.88;100.00
52839;BME280;39219;53.678;9.856;2022-10-30T06:06:31;101441.34;;;10.96;100.00
52839;BME280;39219;53.678;9.856;2022-10-30T06:08:58;101447.50;;;10.98;100.00
52839;BME280;39219;53.678;9.856;2022-10-30T06:11:24;101451.84;;;11.05;100.00
52839;BME280;39219;53.678;9.856;2022-10-30T06:13:50;101449.88;;;11.18;100.00
52839;BME280;39219;53.678;9.856;2022-10-30T06:16:17;101444.28;;;11.35;100.00
52839;BME280;39219;53.678;9.856;2022-10-30T06:18:43;101440.59;;;11.46;100.00
52839;BME280;39219;53.678;9.856;2022-10-30T06:21:11;101444.16;;;11.46;100.00
52839;BME280;39219;53.678;9.856;2022-10-30T06:23:37;101451.47;;;11.32;100.00
52839;BME280;39219;53.678;9.856;2022-10-30T06:26:04;101452.59;;;11.15;100.00
52839;BME280;39219;53.678;9.856;2022-10-30T06:28:30;101450.81;;;11.16;100.00
52839;BME280;39219;53.678;9.856;2022-10-30T06:30:57;101449.91;;;11.17;100.00
52839;BME280;39219;53.678;9.856;2022-10-30T06:33:23;101449.91;;;11.17;100.00
52839;BME280;39219;53.678;9.856;2022-10-30T06:35:50;101450.78;;;11.19;100.00
52839;BME280;39219;53.678;9.856;2022-10-30T06:38:18;101450.56;;;11.31;100.00
52839;BME280;39219;53.678;9.856;2022-10-30T06:40:44;101451.28;;;11.43;100.00
52839;BME280;39219;53.678;9.856;2022-10-30T06:43:11;101452.00;;;11.54;100.00
52839;BME280;39219;53.678;9.856;2022-10-30T06:45:37;101459.91;;;11.57;100.00
52839;BME280;39219;53.678;9.856;2022-10-30T06:48:04;101467.63;;;11.74;100.00
52839;BME280;39219;53.678;9.856;2022-10-30T06:50:30;101473.69;;;11.84;100.00
52839;BME280;39219;53.678;9.856;2022-10-30T06:52:57;101472.63;;;11.93;100.00
52839;BME280;39219;53.678;9.856;2022-10-30T06:55:25;101469.00;;;12.00;100.00
52839;BME280;39219;53.678;9.856;2022-10-30T06:57:54;101467.75;;;12.18;100.00
52839;BME280;39219;53.678;9.856;2022-10-30T07:00:21;101472.63;;;12.43;100.00
52839;BME280;39219;53.678;9.856;2022-10-30T07:02:57;101469.44;;;12.69;100.00
52839;BME280;39219;53.678;9.856;2022-10-30T07:05:23;101469.13;;;12.83;100.00
52839;BME280;39219;53.678;9.856;2022-10-30T07:07:50;101468.34;;;13.19;100.00
52839;BME280;39219;53.678;9.856;2022-10-30T07:10:17;101472.44;;;13.73;100.00
52839;BME280;39219;53.678;9.856;2022-10-30T07:12:52;101478.91;;;14.31;100.00
52839;BME280;39219;53.678;9.856;2022-10-30T07:15:18;101482.16;;;14.44;100.00
52839;BME280;39219;53.678;9.856;2022-10-30T07:17:51;101483.44;;;14.29;100.00
52839;BME280;39219;53.678;9.856;2022-10-30T07:20:17;101480.06;;;14.22;100.00
52839;BME280;39219;53.678;9.856;2022-10-30T07:22:44;101488.06;;;14.22;100.00
52839;BME280;39219;53.678;9.856;2022-10-30T07:25:11;101482.72;;;14.24;100.00
52839;BME280;39219;53.678;9.856;2022-10-30T07:27:41;101493.03;;;14.36;100.00
52839;BME280;39219;53.678;9.856;2022-10-30T07:30:10;101496.94;;;14.57;100.00
52839;BME280;39219;53.678;9.856;2022-10-30T07:32:37;101502.31;;;14.87;100.00
52839;BME280;39219;53.678;9.856;2022-10-30T07:35:04;101507.81;;;15.41;100.00
52839;BME280;39219;53.678;9.856;2022-10-30T07:37:31;101497.16;;;15.95;100.00
52839;BME280;39219;53.678;9.856;2022-10-30T07:39:57;101495.06;;;16.30;100.00
52839;BME280;39219;53.678;9.856;2022-10-30T07:42:24;101509.91;;;16.64;100.00
52839;BME280;39219;53.678;9.856;2022-10-30T07:44:50;101508.88;;;16.92;100.00
52839;BME280;39219;53.678;9.856;2022-10-30T07:47:18;101516.84;;;17.19;100.00
52839;BME280;39219;53.678;9.856;2022-10-30T07:49:44;101517.97;;;17.58;100.00
52839;BME280;39219;53.678;9.856;2022-10-30T07:52:11;101517.63;;;18.10;100.00
52839;BME280;39219;53.678;9.856;2022-10-30T07:54:37;101525.81;;;18.69;100.00
52839;BME280;39219;53.678;9.856;2022-10-30T07:57:04;101531.13;;;19.30;100.00
52839;BME280;39219;53.678;9.856;2022-10-30T07:59:30;101527.97;;;19.58;97.61
52839;BME280;39219;53.678;9.856;2022-10-30T08:01:57;101526.72;;;18.89;94.47
52839;BME280;39219;53.678;9.856;2022-10-30T08:04:26;101521.59;;;17.79;98.25
52839;BME280;39219;53.678;9.856;2022-10-30T08:06:52;101523.41;;;16.86;100.00
52839;BME280;39219;53.678;9.856;2022-10-30T08:09:19;101520.84;;;16.34;100.00
52839;BME280;39219;53.678;9.856;2022-10-30T08:11:45;101524.63;;;16.02;100.00
52839;BME280;39219;53.678;9.856;2022-10-30T08:14:11;101523.84;;;15.69;100.00
52839;BME280;39219;53.678;9.856;2022-10-30T08:16:38;101524.84;;;15.67;100.00
52839;BME280;39219;53.678;9.856;2022-10-30T08:19:04;101526.72;;;16.19;100.00
52839;BME280;39219;53.678;9.856;2022-10-30T08:21:32;101519.81;;;16.87;100.00
52839;BME280;39219;53.678;9.856;2022-10-30T08:23:59;101530.91;;;17.48;100.00
52839;BME280;39219;53.678;9.856;2022-10-30T08:26:25;101528.78;;;17.79;100.00
52839;BME280;39219;53.678;9.856;2022-10-30T08:28:52;101530.91;;;17.48;100.00
52839;BME280;39219;53.678;9.856;2022-10-30T08:31:18;101535.47;;;16.75;100.00
52839;BME280;39219;53.678;9.856;2022-10-30T08:33:45;101524.94;;;16.45;100.00
52839;BME280;39219;53.678;9.856;2022-10-30T08:36:11;101535.19;;;16.57;100.00
52839;BME280;39219;53.678;9.856;2022-10-30T08:38:39;101535.91;;;16.87;100.00
52839;BME280;39219;53.678;9.856;2022-10-30T08:41:06;101539.03;;;17.00;100.00
52839;BME280;39219;53.678;9.856;2022-10-30T08:43:32;101534.28;;;17.07;100.00
52839;BME280;39219;53.678;9.856;2022-10-30T08:45:59;101534.94;;;17.14;100.00
52839;BME280;39219;53.678;9.856;2022-10-30T08:48:25;101532.38;;;17.11;100.00
52839;BME280;39219;53.678;9.856;2022-10-30T08:50:56;101530.84;;;17.04;100.00
52839;BME280;39219;53.678;9.856;2022-10-30T08:53:23;101537.44;;;17.19;100.00
52839;BME280;39219;53.678;9.856;2022-10-30T08:55:51;101534.81;;;17.17;100.00
52839;BME280;39219;53.678;9.856;2022-10-30T08:58:18;101541.03;;;17.17;100.00
52839;BME280;39219;53.678;9.856;2022-10-30T09:00:44;101530.81;;;17.27;100.00
52839;BME280;39219;53.678;9.856;2022-10-30T09:03:11;101535.16;;;17.54;100.00
52839;BME280;39219;53.678;9.856;2022-10-30T09:05:37;101541.16;;;17.60;100.00
52839;BME280;39219;53.678;9.856;2022-10-30T09:08:04;101539.16;;;17.66;100.00
52839;BME280;39219;53.678;9.856;2022-10-30T09:10:30;101548.75;;;17.71;100.00
52839;BME280;39219;53.678;9.856;2022-10-30T09:12:59;101543.34;;;17.73;100.00
52839;BME280;39219;53.678;9.856;2022-10-30T09:15:26;101540.47;;;17.77;100.00
52839;BME280;39219;53.678;9.856;2022-10-30T09:17:56;101540.63;;;17.95;100.00
52839;BME280;39219;53.678;9.856;2022-10-30T09:20:23;101532.75;;;17.90;100.00
52839;BME280;39219;53.678;9.856;2022-10-30T09:22:50;101534.16;;;18.01;100.00
52839;BME280;39219;53.678;9.856;2022-10-30T09:25:17;101531.19;;;18.07;100.00
52839;BME280;39219;53.678;9.856;2022-10-30T09:27:43;101540.63;;;18.17;100.00
52839;BME280;39219;53.678;9.856;2022-10-30T09:30:12;101552.00;;;18.45;100.00
52839;BME280;39219;53.678;9.856;2022-10-30T09:32:39;101549.06;;;18.70;100.00
52839;BME280;39219;53.678;9.856;2022-10-30T09:35:06;101546.91;;;18.78;97.11
52839;BME280;39219;53.678;9.856;2022-10-30T09:37:33;101545.78;;;18.84;98.24
52839;BME280;39219;53.678;9.856;2022-10-30T09:40:00;101544.94;;;19.03;97.02
52839;BME280;39219;53.678;9.856;2022-10-30T09:42:43;101535.28;;;19.18;97.28
52839;BME280;39219;53.678;9.856;2022-10-30T09:45:25;101548.22;;;19.48;96.19
52839;BME280;39219;53.678;9.856;2022-10-30T09:48:03;101547.72;;;19.76;93.73
52839;BME280;39219;53.678;9.856;2022-10-30T09:50:37;101553.84;;;19.80;91.65
52839;BME280;39219;53.678;9.856;2022-10-30T09:53:14;101556.16;;;19.51;92.86
52839;BME280;39219;53.678;9.856;2022-10-30T09:55:44;101550.91;;;19.48;96.56
52839;BME280;39219;53.678;9.856;2022-10-30T09:58:20;101551.06;;;19.81;93.75
52839;BME280;39219;53.678;9.856;2022-10-30T10:00:55;101545.81;;;19.78;93.22
52839;BME280;39219;53.678;9.856;2022-10-30T10:03:40;101543.13;;;19.78;93.51
52839;BME280;39219;53.678;9.856;2022-10-30T10:06:16;101538.44;;;20.01;91.10
52839;BME280;39219;53.678;9.856;2022-10-30T10:08:46;101544.97;;;20.15;91.40
52839;BME280;39219;53.678;9.856;2022-10-30T10:11:16;101547.56;;;19.98;91.20
52839;BME280;39219;53.678;9.856;2022-10-30T10:13:47;101536.28;;;19.90;90.99
52839;BME280;39219;53.678;9.856;2022-10-30T10:16:17;101539.28;;;19.84;93.29
52839;BME280;39219;53.678;9.856;2022-10-30T10:18:46;101541.69;;;20.08;91.59
52839;BME280;39219;53.678;9.856;2022-10-30T10:21:20;101542.97;;;20.18;93.55
52839;BME280;39219;53.678;9.856;2022-10-30T10:23:48;101537.41;;;20.04;91.72
52839;BME280;39219;53.678;9.856;2022-10-30T10:26:25;101540.38;;;20.17;92.47
52839;BME280;39219;53.678;9.856;2022-10-30T10:29:01;101541.91;;;20.56;88.43
52839;BME280;39219;53.678;9.856;2022-10-30T10:31:41;101538.31;;;20.73;87.03
52839;BME280;39219;53.678;9.856;2022-10-30T10:34:20;101542.63;;;20.77;88.58
52839;BME280;39219;53.678;9.856;2022-10-30T10:36:52;101537.34;;;20.74;87.35
52839;BME280;39219;53.678;9.856;2022-10-30T10:39:35;101539.09;;;20.93;85.28
52839;BME280;39219;53.678;9.856;2022-10-30T10:42:16;101533.59;;;20.94;88.64
52839;BME280;39219;53.678;9.856;2022-10-30T10:44:49;101540.50;;;21.32;84.85
52839;BME280;39219;53.678;9.856;2022-10-30T10:47:33;101536.84;;;21.33;85.49
52839;BME280;39219;53.678;9.856;2022-10-30T10:50:12;101536.22;;;21.12;87.95
52839;BME280;39219;53.678;9.856;2022-10-30T10:52:45;101525.38;;;21.29;87.52
52839;BME280;39219;53.678;9.856;2022-10-30T10:55:15;101537.06;;;21.62;87.12
52839;BME280;39219;53.678;9.856;2022-10-30T10:57:43;101528.19;;;21.91;83.50
52839;BME280;39219;53.678;9.856;2022-10-30T11:00:14;101525.06;;;22.13;83.41
52839;BME280;39219;53.678;9.856;2022-10-30T11:02:46;101531.81;;;22.06;81.60
52839;BME280;39219;53.678;9.856;2022-10-30T11:05:20;101535.75;;;21.69;82.24
52839;BME280;39219;53.678;9.856;2022-10-30T11:07:50;101537.91;;;21.79;84.01
52839;BME280;39219;53.678;9.856;2022-10-30T11:10:18;101527.09;;;22.09;82.22
52839;BME280;39219;53.678;9.856;2022-10-30T11:12:45;101529.28;;;22.33;81.16
52839;BME280;39219;53.678;9.856;2022-10-30T11:15:21;101531.66;;;22.54;80.22
52839;BME280;39219;53.678;9.856;2022-10-30T11:17:57;101530.22;;;22.62;79.05
52839;BME280;39219;53.678;9.856;2022-10-30T11:20:29;101538.31;;;22.62;79.75
52839;BME280;39219;53.678;9.856;2022-10-30T11:22:57;101533.31;;;22.71;78.26
52839;BME280;39219;53.678;9.856;2022-10-30T11:25:25;101541.63;;;22.82;79.37
52839;BME280;39219;53.678;9.856;2022-10-30T11:27:54;101543.75;;;22.91;78.21
52839;BME280;39219;53.678;9.856;2022-10-30T11:30:23;101541.31;;;23.01;79.05
52839;BME280;39219;53.678;9.856;2022-10-30T11:32:50;101532.75;;;22.95;77.55
52839;BME280;39219;53.678;9.856;2022-10-30T11:35:19;101525.38;;;22.82;78.01
52839;BME280;39219;53.678;9.856;2022-10-30T11:37:48;101531.38;;;22.58;79.99
52839;BME280;39219;53.678;9.856;2022-10-30T11:40:16;101526.72;;;22.60;80.82
52839;BME280;39219;53.678;9.856;2022-10-30T11:42:45;101531.88;;;22.65;80.54
52839;BME280;39219;53.678;9.856;2022-10-30T11:45:15;101537.91;;;22.40;79.65
52839;BME280;39219;53.678;9.856;2022-10-30T11:47:42;101536.72;;;22.29;83.43
52839;BME280;39219;53.678;9.856;2022-10-30T11:50:16;101530.22;;;22.17;81.75
52839;BME280;39219;53.678;9.856;2022-10-30T11:52:47;101529.72;;;22.11;82.39
52839;BME280;39219;53.678;9.856;2022-10-30T11:55:17;101531.84;;;22.20;81.60
52839;BME280;39219;53.678;9.856;2022-10-30T11:57:47;101530.72;;;22.24;82.18
52839;BME280;39219;53.678;9.856;2022-10-30T12:00:17;101537.94;;;22.24;80.96
52839;BME280;39219;53.678;9.856;2022-10-30T12:02:45;101531.81;;;22.06;81.06
52839;BME280;39219;53.678;9.856;2022-10-30T12:05:30;101538.88;;;22.08;80.84
52839;BME280;39219;53.678;9.856;2022-10-30T12:08:16;101544.72;;;22.00;81.06
52839;BME280;39219;53.678;9.856;2022-10-30T12:10:45;101540.53;;;22.11;81.77
52839;BME280;39219;53.678;9.856;2022-10-30T12:13:13;101529.53;;;22.14;81.58
52839;BME280;39219;53.678;9.856;2022-10-30T12:15:41;101534.56;;;22.20;82.14
52839;BME280;39219;53.678;9.856;2022-10-30T12:18:18;101535.41;;;22.21;81.77
52839;BME280;39219;53.678;9.856;2022-10-30T12:20:48;101534.59;;;22.34;82.66
52839;BME280;39219;53.678;9.856;2022-10-30T12:23:19;101537.31;;;22.34;79.32
52839;BME280;39219;53.678;9.856;2022-10-30T12:25:51;101536.34;;;22.36;80.14
52839;BME280;39219;53.678;9.856;2022-10-30T12:28:20;101542.34;;;22.41;79.37
52839;BME280;39219;53.678;9.856;2022-10-30T12:30:50;101543.38;;;22.38;79.76
52839;BME280;39219;53.678;9.856;2022-10-30T12:33:23;101537.00;;;22.39;79.87
52839;BME280;39219;53.678;9.856;2022-10-30T12:35:54;101523.56;;;22.23;80.31
52839;BME280;39219;53.678;9.856;2022-10-30T12:38:25;101518.84;;;21.96;82.86
52839;BME280;39219;53.678;9.856;2022-10-30T12:41:00;101510.47;;;21.70;84.25
52839;BME280;39219;53.678;9.856;2022-10-30T12:43:30;101509.06;;;21.63;83.68
52839;BME280;39219;53.678;9.856;2022-10-30T12:46:10;101513.34;;;21.51;83.47
52839;BME280;39219;53.678;9.856;2022-10-30T12:48:46;101513.41;;;21.50;86.31
52839;BME280;39219;53.678;9.856;2022-10-30T12:51:18;101514.63;;;21.60;86.37